»·PEaware :: N7357K KPDX-KEUG

N7357K :: KPDX-KEUG

FLIGHT INFORMATION

Flight Status: Arrived
Operator: Privately registered:
United States
More flights under this callsign
Pilot: Steve F. (18480)
Aircraft: BEECH AIRCRAFT BARON
(BE58)
More flights by this aircraft type
Origin: KPDX Portland Intl
United States
Destination: KEUG Mahlon Sweet
United States
More flights between these airports :: More routes between these airports
Route: BTG V23 EUG
File this flight plan on PilotEdge
Remarks:
Altitude:
(Current/Filed)
6,000ft
Speed:
(Current/Filed)
170kts
Departed: 01-Sep-18 07:06 PM
Arrived: 01-Sep-18 07:58 PM
Distance/Time
Traveled:
92nm/0:52
Distance/Time
To Go:
Arrived

Flight Plot

Page will automatically refresh every two minutes.

Flight plan parsing failed; only flown route is shown


Map Options




Map Legend


Flown Route
Filed Route
Departure Airport
Arrival Airport
Navaid (VOR, NDB)
Fix

Horizontal Profiles

Position Reports

Time Latitude Longitude Heading Altitude Ground
Speed
01-Sep-18 19:00 45.582492 -122.581388 29 14ft 0kts
01-Sep-18 19:01 45.582492 -122.581388 29 14ft 0kts
01-Sep-18 19:02 45.582492 -122.581388 29 14ft 0kts
01-Sep-18 19:03 45.582492 -122.581388 29 14ft 0kts
01-Sep-18 19:04 45.582420 -122.581707 211 14ft 13kts
01-Sep-18 19:05 45.581448 -122.583380 210 14ft 0kts
01-Sep-18 19:06 45.581448 -122.583380 210 14ft 0kts
01-Sep-18 19:07 45.581404 -122.586056 300 14ft 47kts
01-Sep-18 19:08 45.597077 -122.624215 300 933ft 130kts
01-Sep-18 19:09 45.612413 -122.671822 293 2411ft 129kts
01-Sep-18 19:10 45.626092 -122.718013 276 3747ft 129kts
01-Sep-18 19:11 45.595330 -122.736564 181 4893ft 147kts
01-Sep-18 19:12 45.553112 -122.732283 178 5821ft 154kts
01-Sep-18 19:13 45.506603 -122.727402 178 6052ft 185kts
01-Sep-18 19:14 45.454000 -122.722168 178 6048ft 192kts
01-Sep-18 19:15 45.401483 -122.729362 197 6048ft 189kts
01-Sep-18 19:16 45.350754 -122.749075 197 6052ft 189kts
01-Sep-18 19:17 45.299801 -122.769123 197 6055ft 190kts
01-Sep-18 19:18 45.248888 -122.789103 196 6056ft 190kts
01-Sep-18 19:19 45.197800 -122.809128 196 6056ft 191kts
01-Sep-18 19:20 45.146642 -122.829145 196 6056ft 191kts
01-Sep-18 19:21 45.095378 -122.849155 196 6055ft 191kts
01-Sep-18 19:22 45.044471 -122.868995 196 6057ft 189kts
01-Sep-18 19:23 44.993914 -122.888669 197 6052ft 188kts
01-Sep-18 19:24 44.943780 -122.908145 197 6047ft 186kts
01-Sep-18 19:25 44.894069 -122.927420 196 6046ft 186kts
01-Sep-18 19:26 44.844200 -122.946721 196 6046ft 186kts
01-Sep-18 19:27 44.794290 -122.966002 196 6046ft 186kts
01-Sep-18 19:28 44.744162 -122.985333 196 6044ft 187kts
01-Sep-18 19:29 44.693786 -123.004724 196 6052ft 188kts
01-Sep-18 19:30 44.643253 -123.024143 196 6050ft 189kts
01-Sep-18 19:31 44.592125 -123.043755 196 6048ft 190kts
01-Sep-18 19:32 44.539387 -123.047305 177 6047ft 192kts
01-Sep-18 19:33 44.486142 -123.044939 178 6047ft 192kts
01-Sep-18 19:34 44.432538 -123.043224 178 6044ft 193kts
01-Sep-18 19:35 44.378853 -123.041463 178 6041ft 193kts
01-Sep-18 19:36 44.324953 -123.039648 178 6039ft 194kts
01-Sep-18 19:37 44.273146 -123.037961 178 5633ft 168kts
01-Sep-18 19:38 44.226885 -123.036639 178 5124ft 172kts
01-Sep-18 19:39 44.179775 -123.035544 178 4983ft 171kts
01-Sep-18 19:40 44.128808 -123.034328 178 5011ft 186kts
01-Sep-18 19:41 44.077069 -123.033028 178 5011ft 186kts
01-Sep-18 19:42 44.025135 -123.031697 178 5011ft 186kts
01-Sep-18 19:43 43.973220 -123.030336 178 5011ft 186kts
01-Sep-18 19:44 43.921401 -123.028949 178 5012ft 186kts
01-Sep-18 19:45 43.869754 -123.027542 178 5008ft 186kts
01-Sep-18 19:46 43.828708 -123.055240 217 4712ft 163kts
01-Sep-18 19:47 43.798363 -123.097158 282 3972ft 155kts
01-Sep-18 19:48 43.810759 -123.149782 297 3987ft 140kts
01-Sep-18 19:49 43.826601 -123.198757 307 3977ft 139kts
01-Sep-18 19:50 43.859822 -123.212660 353 3685ft 127kts
01-Sep-18 19:51 43.895231 -123.214711 4 3317ft 129kts
01-Sep-18 19:52 43.931106 -123.214324 0 2911ft 129kts
01-Sep-18 19:53 43.966464 -123.215237 2 2579ft 128kts
01-Sep-18 19:54 44.001893 -123.217669 3 2230ft 126kts
01-Sep-18 19:55 44.035634 -123.217176 4 1831ft 120kts
01-Sep-18 19:56 44.067025 -123.217689 0 1367ft 107kts
01-Sep-18 19:57 44.097131 -123.218050 4 725ft 109kts
01-Sep-18 19:58 44.121024 -123.218899 357 362ft 42kts
01-Sep-18 19:59 44.125514 -123.217917 148 358ft 0kts
01-Sep-18 20:00 44.121398 -123.214465 148 362ft 27kts

Navigation Log

Ident Type
Flight plan parsing failed, navigation log unavailable